createdAt,value
2022-11-24T00:02:19.135Z,99697.50
2022-11-24T00:05:05.132Z,99700.03
2022-11-24T00:07:50.190Z,99707.66
2022-11-24T00:10:35.737Z,99710.13
2022-11-24T00:13:20.891Z,99710.91
2022-11-24T00:16:23.946Z,99712.63
2022-11-24T00:19:09.860Z,99718.53
2022-11-24T00:21:55.041Z,99716.72
2022-11-24T00:24:40.093Z,99720.06
2022-11-24T00:27:24.927Z,99726.91
2022-11-24T00:30:10.201Z,99725.38
2022-11-24T00:32:55.103Z,99723.69
2022-11-24T00:35:40.501Z,99721.22
2022-11-24T00:38:26.437Z,99721.03
2022-11-24T00:41:12.289Z,99725.31
2022-11-24T00:43:58.257Z,99726.91
2022-11-24T00:46:43.309Z,99737.53
2022-11-24T00:49:28.699Z,99736.50
2022-11-24T00:52:13.685Z,99738.28
2022-11-24T00:54:58.501Z,99737.22
2022-11-24T00:57:46.379Z,99732.28
2022-11-24T01:00:31.339Z,99736.38
2022-11-24T01:03:17.457Z,99738.22
2022-11-24T01:06:08.519Z,99738.16
2022-11-24T01:08:54.217Z,99735.22
2022-11-24T01:11:39.218Z,99744.56
2022-11-24T01:14:25.384Z,99747.78
2022-11-24T01:17:10.288Z,99751.25
2022-11-24T01:19:55.596Z,99756.38
2022-11-24T01:22:41.091Z,99753.91
2022-11-24T01:25:26.021Z,99753.88
2022-11-24T01:28:10.931Z,99759.88
2022-11-24T01:31:04.320Z,99767.56
2022-11-24T01:33:49.614Z,99764.94
2022-11-24T01:36:34.759Z,99776.13
2022-11-24T01:39:20.220Z,99776.91
2022-11-24T01:42:05.346Z,99773.56
2022-11-24T01:45:33.900Z,99778.72
2022-11-24T01:48:34.852Z,99783.94
2022-11-24T01:51:25.152Z,99786.56
2022-11-24T01:54:40.140Z,99789.91
2022-11-24T01:57:30.160Z,99788.28
2022-11-24T02:00:16.233Z,99793.53
2022-11-24T02:03:01.621Z,99796.97
2022-11-24T02:06:13.354Z,99801.94
2022-11-24T02:09:22.737Z,99800.97
2022-11-24T02:12:08.234Z,99812.16
2022-11-24T02:14:54.831Z,99807.09
2022-11-24T02:17:40.290Z,99816.31
2022-11-24T02:20:26.106Z,99806.88
2022-11-24T02:23:24.152Z,99812.09
2022-11-24T02:26:27.830Z,99823.22
2022-11-24T02:29:14.197Z,99819.13
2022-11-24T02:32:01.816Z,99816.56
2022-11-24T02:34:47.165Z,99822.00
2022-11-24T02:37:32.041Z,99828.09
2022-11-24T02:40:21.603Z,99833.28
2022-11-24T02:43:15.318Z,99837.81
2022-11-24T02:46:00.173Z,99846.69
2022-11-24T02:48:45.655Z,99837.34
2022-11-24T02:51:30.789Z,99844.28
2022-11-24T02:54:16.020Z,99844.28
2022-11-24T02:57:00.893Z,99840.09
2022-11-24T02:59:45.710Z,99843.59
2022-11-24T03:02:31.279Z,99843.47
2022-11-24T03:05:16.882Z,99838.41
2022-11-24T03:08:02.034Z,99847.06
2022-11-24T03:10:47.230Z,99846.19
2022-11-24T03:13:32.716Z,99848.00
2022-11-24T03:16:17.785Z,99842.06
2022-11-24T03:19:02.730Z,99851.59
2022-11-24T03:21:47.660Z,99851.66
2022-11-24T03:24:33.203Z,99856.00
2022-11-24T03:27:18.637Z,99859.59
2022-11-24T03:30:04.443Z,99852.88
2022-11-24T03:32:54.071Z,99857.16
2022-11-24T03:35:39.166Z,99857.38
2022-11-24T03:38:24.598Z,99859.09
2022-11-24T03:41:11.142Z,99858.34
2022-11-24T03:43:56.129Z,99855.91
2022-11-24T03:46:41.605Z,99846.59
2022-11-24T03:49:27.012Z,99846.69
2022-11-24T03:52:11.907Z,99850.22
2022-11-24T03:54:57.264Z,99851.13
2022-11-24T03:57:42.639Z,99848.63
2022-11-24T04:00:27.756Z,99851.28
2022-11-24T04:03:12.979Z,99852.84
2022-11-24T04:05:58.354Z,99846.00
2022-11-24T04:08:43.496Z,99850.22
2022-11-24T04:11:28.659Z,99859.00
2022-11-24T04:14:14.014Z,99859.97
2022-11-24T04:16:59.169Z,99857.59
2022-11-24T04:19:43.942Z,99862.94
2022-11-24T04:22:29.066Z,99855.22
2022-11-24T04:25:14.500Z,99856.94
2022-11-24T04:27:59.380Z,99848.41
2022-11-24T04:30:45.132Z,99851.00
2022-11-24T04:33:31.030Z,99857.84
2022-11-24T04:36:15.947Z,99863.78
2022-11-24T04:39:20.122Z,99860.38
2022-11-24T04:42:06.342Z,99865.47
2022-11-24T04:44:52.097Z,99867.19
2022-11-24T04:47:38.133Z,99866.41
2022-11-24T04:50:23.322Z,99876.59
2022-11-24T04:53:10.167Z,99875.59
2022-11-24T04:55:55.474Z,99890.97
2022-11-24T04:58:40.522Z,99885.88
2022-11-24T05:01:25.588Z,99890.16
2022-11-24T05:04:12.479Z,99884.13
2022-11-24T05:06:57.446Z,99898.75
2022-11-24T05:09:58.945Z,99896.19
2022-11-24T05:12:51.002Z,99903.09
2022-11-24T05:15:38.165Z,99901.38
2022-11-24T05:18:23.960Z,99913.44
2022-11-24T05:21:08.930Z,99916.06
2022-11-24T05:23:53.764Z,99927.28
2022-11-24T05:26:38.702Z,99917.81
2022-11-24T05:29:23.605Z,99917.94
2022-11-24T05:32:08.540Z,99928.22
2022-11-24T05:34:53.330Z,99928.22
2022-11-24T05:37:38.797Z,99931.66
2022-11-24T05:40:24.497Z,99939.31
2022-11-24T05:43:13.556Z,99939.41
2022-11-24T05:46:00.416Z,99940.22
2022-11-24T05:48:45.749Z,99949.66
2022-11-24T05:51:30.870Z,99947.94
2022-11-24T05:54:16.035Z,99959.94
2022-11-24T05:57:01.184Z,99967.66
2022-11-24T05:59:46.523Z,99964.34
2022-11-24T06:02:31.616Z,99964.44
2022-11-24T06:05:17.068Z,99967.13
2022-11-24T06:08:02.006Z,99974.88
2022-11-24T06:10:46.976Z,99978.38
2022-11-24T06:13:32.319Z,99977.47
2022-11-24T06:16:17.616Z,99983.50
2022-11-24T06:19:03.000Z,99990.53
2022-11-24T06:21:48.391Z,99996.63
2022-11-24T06:24:33.559Z,99998.41
2022-11-24T06:27:19.304Z,99999.25
2022-11-24T06:30:05.116Z,100001.00
2022-11-24T06:32:54.893Z,100009.56
2022-11-24T06:35:40.027Z,100029.16
2022-11-24T06:38:25.051Z,100036.75
2022-11-24T06:41:13.606Z,100043.59
2022-11-24T06:44:03.813Z,100050.44
2022-11-24T06:46:49.048Z,100058.91
2022-11-24T06:49:37.255Z,100063.19
2022-11-24T06:52:23.423Z,100069.94
2022-11-24T06:55:08.643Z,100071.66
2022-11-24T06:57:53.799Z,100080.22
2022-11-24T07:00:39.406Z,100075.13
2022-11-24T07:03:24.600Z,100070.75
2022-11-24T07:06:10.236Z,100077.59
2022-11-24T07:08:55.401Z,100077.59
2022-11-24T07:11:41.148Z,100088.69
2022-11-24T07:14:26.421Z,100081.03
2022-11-24T07:17:11.860Z,100093.03
2022-11-24T07:19:56.657Z,100087.84
2022-11-24T07:22:46.895Z,100092.00
2022-11-24T07:25:32.026Z,100097.09
2022-11-24T07:28:16.848Z,100101.25
2022-11-24T07:31:11.303Z,100105.44
2022-11-24T07:33:56.403Z,100120.81
2022-11-24T07:36:42.384Z,100127.66
2022-11-24T07:39:27.570Z,100131.94
2022-11-24T07:42:13.110Z,100128.50
2022-11-24T07:44:58.209Z,100131.00
2022-11-24T07:47:44.014Z,100139.72
2022-11-24T07:50:29.754Z,100141.50
2022-11-24T07:53:15.648Z,100144.72
2022-11-24T07:56:02.345Z,100132.59
2022-11-24T07:58:52.600Z,100147.09
2022-11-24T08:01:38.483Z,100153.13
2022-11-24T08:04:23.793Z,100144.47
2022-11-24T08:07:08.835Z,100155.69
2022-11-24T08:09:54.343Z,100171.03
2022-11-24T08:12:39.237Z,100169.53
2022-11-24T08:15:24.035Z,100167.75
2022-11-24T08:18:09.706Z,100171.38
2022-11-24T08:20:58.268Z,100179.00
2022-11-24T08:23:43.229Z,100172.03
2022-11-24T08:26:28.273Z,100180.78
2022-11-24T08:29:14.329Z,100181.53
2022-11-24T08:31:59.495Z,100185.09
2022-11-24T08:34:45.072Z,100185.16
2022-11-24T08:37:29.804Z,100189.47
2022-11-24T08:40:14.829Z,100189.50
2022-11-24T08:43:00.948Z,100193.25
2022-11-24T08:45:45.892Z,100199.34
2022-11-24T08:48:33.876Z,100195.94
2022-11-24T08:51:22.927Z,100202.13
2022-11-24T08:54:10.233Z,100208.38
2022-11-24T08:56:55.762Z,100202.53
2022-11-24T08:59:40.755Z,100211.22
2022-11-24T09:02:26.205Z,100213.19
2022-11-24T09:05:43.331Z,100209.88
2022-11-24T09:08:16.374Z,100210.88
2022-11-24T09:11:08.077Z,100203.22
2022-11-24T09:13:54.507Z,100206.81
2022-11-24T09:16:40.032Z,100200.06
2022-11-24T09:19:25.114Z,100195.13
2022-11-24T09:22:10.488Z,100193.50
2022-11-24T09:24:55.983Z,100196.19
2022-11-24T09:27:40.985Z,100185.31
2022-11-24T09:30:26.408Z,100187.09
2022-11-24T09:33:11.283Z,100177.72
2022-11-24T09:35:56.836Z,100182.03
2022-11-24T09:38:41.883Z,100169.31
2022-11-24T09:41:57.660Z,100182.38
2022-11-24T09:45:04.566Z,100175.53
2022-11-24T09:48:01.097Z,100184.16
2022-11-24T09:50:49.411Z,100179.88
2022-11-24T09:53:39.616Z,100191.16
2022-11-24T09:56:31.074Z,100180.63
2022-11-24T09:59:24.547Z,100197.66
2022-11-24T10:02:12.607Z,100188.91
2022-11-24T10:04:57.813Z,100186.22
2022-11-24T10:07:55.045Z,100198.94
2022-11-24T10:10:54.803Z,100213.53
2022-11-24T10:13:49.124Z,100211.72
2022-11-24T10:17:02.972Z,100212.63
2022-11-24T10:20:24.196Z,100220.47
2022-11-24T10:23:31.893Z,100226.59
2022-11-24T10:26:18.348Z,100240.41
2022-11-24T10:29:20.329Z,100245.50
2022-11-24T10:32:19.545Z,100246.28
2022-11-24T10:35:20.940Z,100235.19
2022-11-24T10:38:20.586Z,100232.81
2022-11-24T10:41:14.260Z,100220.84
2022-11-24T10:43:59.079Z,100238.03
2022-11-24T10:46:44.692Z,100225.25
2022-11-24T10:49:32.268Z,100214.09
2022-11-24T10:52:18.883Z,100219.28
2022-11-24T10:55:05.464Z,100202.03
2022-11-24T10:57:50.554Z,100211.69
2022-11-24T11:00:35.908Z,100204.03
2022-11-24T11:03:26.701Z,100218.66
2022-11-24T11:06:13.816Z,100216.13
2022-11-24T11:09:08.219Z,100219.59
2022-11-24T11:11:53.445Z,100229.28
2022-11-24T11:14:38.654Z,100232.00
2022-11-24T11:17:34.299Z,100233.72
2022-11-24T11:20:27.653Z,100240.28
2022-11-24T11:23:16.284Z,100263.97
2022-11-24T11:26:32.520Z,100279.19
2022-11-24T11:35:33.626Z,100308.59
2022-11-24T11:38:19.456Z,100321.38
2022-11-24T11:41:07.067Z,100327.47
2022-11-24T11:44:01.860Z,100319.72
2022-11-24T11:46:47.392Z,100329.28
2022-11-24T11:49:32.959Z,100337.88
2022-11-24T11:52:46.235Z,100328.25
2022-11-24T11:55:49.655Z,100347.88
2022-11-24T12:01:25.495Z,100364.09
2022-11-24T12:04:31.309Z,100371.69
2022-11-24T12:07:43.244Z,100373.41
2022-11-24T12:10:42.021Z,100367.38
2022-11-24T12:13:36.298Z,100372.53
2022-11-24T12:16:24.495Z,100372.72
2022-11-24T12:19:28.880Z,100373.53
2022-11-24T12:22:37.125Z,100377.94
2022-11-24T12:26:04.903Z,100370.31
2022-11-24T12:28:55.665Z,100385.78
2022-11-24T12:32:06.865Z,100377.31
2022-11-24T12:35:20.679Z,100368.63
2022-11-24T12:38:44.815Z,100367.88
2022-11-24T12:42:13.794Z,100366.22
2022-11-24T12:45:12.667Z,100364.56
2022-11-24T12:48:16.315Z,100373.22
2022-11-24T12:51:04.495Z,100358.69
2022-11-24T12:53:50.856Z,100367.38
2022-11-24T12:57:09.259Z,100373.50
2022-11-24T13:00:04.900Z,100370.03
2022-11-24T13:03:19.080Z,100365.88
2022-11-24T13:06:27.816Z,100373.66
2022-11-24T13:09:14.113Z,100368.50
2022-11-24T13:12:13.655Z,100365.16
2022-11-24T13:14:59.191Z,100372.09
2022-11-24T13:18:05.272Z,100366.22
2022-11-24T13:20:55.919Z,100362.91
2022-11-24T13:23:41.280Z,100358.63
2022-11-24T13:26:42.090Z,100370.72
2022-11-24T13:29:58.427Z,100372.50
2022-11-24T13:32:43.332Z,100360.47
2022-11-24T13:35:29.293Z,100369.06
2022-11-24T13:38:48.461Z,100362.34
2022-11-24T13:41:33.644Z,100363.16
2022-11-24T13:44:25.162Z,100366.59
2022-11-24T13:47:47.445Z,100364.97
2022-11-24T13:50:54.606Z,100369.38
2022-11-24T13:53:45.090Z,100370.13
2022-11-24T13:56:31.166Z,100371.00
2022-11-24T13:59:24.259Z,100370.13
2022-11-24T14:02:23.255Z,100371.03
2022-11-24T14:05:13.463Z,100367.56
2022-11-24T14:07:58.433Z,100370.19
2022-11-24T14:10:43.603Z,100378.84
2022-11-24T14:13:29.966Z,100378.03
2022-11-24T14:16:14.857Z,100386.63
2022-11-24T14:19:09.960Z,100368.53
2022-11-24T14:21:55.334Z,100374.69
2022-11-24T14:24:41.831Z,100381.53
2022-11-24T14:27:38.929Z,100375.50
2022-11-24T14:30:25.510Z,100376.56
2022-11-24T14:33:11.984Z,100377.63
2022-11-24T14:35:56.862Z,100375.09
2022-11-24T14:38:42.627Z,100377.69
2022-11-24T14:41:27.684Z,100373.47
2022-11-24T14:44:19.813Z,100388.47
2022-11-24T14:47:31.631Z,100380.41
2022-11-24T14:50:18.685Z,100357.44
2022-11-24T14:53:14.948Z,100334.34
2022-11-24T14:56:27.031Z,100343.22
2022-11-24T14:59:27.778Z,100325.97
2022-11-24T15:02:40.203Z,100344.03
2022-11-24T15:05:51.519Z,100349.75
2022-11-24T15:08:46.861Z,100376.06
2022-11-24T15:11:35.233Z,100393.09
2022-11-24T15:14:36.671Z,100400.63
2022-11-24T15:17:24.983Z,100403.78
2022-11-24T15:20:17.273Z,100405.25
2022-11-24T15:23:22.886Z,100415.22
2022-11-24T15:26:11.266Z,100408.88
2022-11-24T15:28:56.242Z,100415.53
2022-11-24T15:31:45.119Z,100432.81
2022-11-24T15:34:33.025Z,100432.63
2022-11-24T15:37:18.143Z,100427.34
2022-11-24T15:40:03.167Z,100429.97
2022-11-24T15:42:59.637Z,100435.81
2022-11-24T15:45:48.478Z,100443.16
2022-11-24T15:48:33.876Z,100447.97
2022-11-24T15:51:19.624Z,100467.41
2022-11-24T15:54:04.976Z,100468.06
2022-11-24T15:56:50.146Z,100478.09
2022-11-24T15:59:34.951Z,100487.31
2022-11-24T16:02:20.435Z,100494.25
2022-11-24T16:05:08.618Z,100495.69
2022-11-24T16:07:54.087Z,100494.91
2022-11-24T16:10:41.639Z,100502.50
2022-11-24T16:13:27.770Z,100494.97
2022-11-24T16:16:13.603Z,100507.41
2022-11-24T16:18:58.940Z,100502.22
2022-11-24T16:21:47.704Z,100509.91
2022-11-24T16:24:33.047Z,100513.97
2022-11-24T16:27:20.065Z,100510.38
2022-11-24T16:30:07.550Z,100513.06
2022-11-24T16:32:55.955Z,100516.28
2022-11-24T16:35:41.483Z,100512.94
2022-11-24T16:38:26.659Z,100517.75
2022-11-24T16:41:12.233Z,100522.75
2022-11-24T16:44:01.512Z,100521.59
2022-11-24T16:46:46.293Z,100517.50
2022-11-24T16:49:31.364Z,100515.81
2022-11-24T16:52:16.823Z,100524.28
2022-11-24T16:55:01.741Z,100521.47
2022-11-24T16:57:46.833Z,100520.78
2022-11-24T17:00:35.075Z,100523.53
2022-11-24T17:03:23.628Z,100525.84
2022-11-24T17:06:11.592Z,100535.38
2022-11-24T17:09:00.231Z,100531.59
2022-11-24T17:11:45.489Z,100534.91
2022-11-24T17:14:30.529Z,100536.66
2022-11-24T17:17:15.701Z,100534.06
2022-11-24T17:20:00.959Z,100530.66
2022-11-24T17:22:46.340Z,100527.66
2022-11-24T17:25:32.620Z,100545.28
2022-11-24T17:28:17.745Z,100544.34
2022-11-24T17:31:27.994Z,100550.69
2022-11-24T17:34:13.735Z,100546.59
2022-11-24T17:36:58.875Z,100550.91
2022-11-24T17:39:54.824Z,100551.28
2022-11-24T17:42:48.951Z,100549.56
2022-11-24T17:45:34.424Z,100546.13
2022-11-24T17:48:19.747Z,100548.34
2022-11-24T17:51:13.210Z,100551.66
2022-11-24T17:53:58.213Z,100551.53
2022-11-24T17:56:43.877Z,100548.69
2022-11-24T17:59:28.939Z,100542.44
2022-11-24T18:02:13.880Z,100547.72
2022-11-24T18:04:59.278Z,100556.50
2022-11-24T18:07:44.627Z,100550.78
2022-11-24T18:10:32.292Z,100549.53
2022-11-24T18:13:34.112Z,100557.28
2022-11-24T18:16:23.302Z,100560.72
2022-11-24T18:19:09.894Z,100563.34
2022-11-24T18:21:55.767Z,100565.25
2022-11-24T18:24:41.155Z,100568.34
2022-11-24T18:27:26.153Z,100558.94
2022-11-24T18:30:11.568Z,100558.16
2022-11-24T18:32:58.525Z,100554.78
2022-11-24T18:36:02.392Z,100547.31
2022-11-24T18:38:47.604Z,100556.53
2022-11-24T18:41:32.745Z,100561.66
2022-11-24T18:44:18.000Z,100564.31
2022-11-24T18:47:04.309Z,100560.56
2022-11-24T18:49:49.542Z,100540.59
2022-11-24T18:52:34.493Z,100557.41
2022-11-24T18:55:19.309Z,100565.34
2022-11-24T18:58:05.837Z,100565.22
2022-11-24T19:00:51.973Z,100561.91
2022-11-24T19:03:43.598Z,100576.75
2022-11-24T19:06:36.422Z,100570.53
2022-11-24T19:09:21.681Z,100577.28
2022-11-24T19:12:09.252Z,100579.06
2022-11-24T19:14:55.621Z,100579.81
2022-11-24T19:17:47.210Z,100586.16
2022-11-24T19:20:33.963Z,100585.16
2022-11-24T19:23:20.435Z,100583.44
2022-11-24T19:26:08.168Z,100583.28
2022-11-24T19:28:53.020Z,100589.53
2022-11-24T19:31:38.507Z,100579.19
2022-11-24T19:34:24.225Z,100593.03
2022-11-24T19:37:09.720Z,100588.56
2022-11-24T19:39:54.753Z,100582.00
2022-11-24T19:42:40.097Z,100591.47
2022-11-24T19:45:25.331Z,100591.28
2022-11-24T19:48:10.806Z,100592.88
2022-11-24T19:51:04.457Z,100597.09
2022-11-24T19:53:49.771Z,100605.47
2022-11-24T19:56:36.461Z,100606.66
2022-11-24T19:59:21.579Z,100610.19
2022-11-24T20:02:07.062Z,100616.38
2022-11-24T20:04:52.795Z,100609.41
2022-11-24T20:07:37.787Z,100610.97
2022-11-24T20:10:23.022Z,100615.94
2022-11-24T20:13:08.011Z,100610.72
2022-11-24T20:15:53.049Z,100605.69
2022-11-24T20:18:42.331Z,100619.34
2022-11-24T20:21:29.343Z,100617.50
2022-11-24T20:24:19.773Z,100615.78
2022-11-24T20:27:04.916Z,100615.94
2022-11-24T20:29:49.796Z,100623.53
2022-11-24T20:32:35.187Z,100620.97
2022-11-24T20:35:20.079Z,100610.47
2022-11-24T20:38:05.102Z,100606.50
2022-11-24T20:40:50.020Z,100608.22
2022-11-24T20:43:36.139Z,100608.19
2022-11-24T20:46:26.980Z,100602.50
2022-11-24T20:49:15.784Z,100608.94
2022-11-24T20:52:00.817Z,100612.03
2022-11-24T20:54:46.318Z,100607.63
2022-11-24T20:57:31.528Z,100622.38
2022-11-24T21:00:16.737Z,100611.78
2022-11-24T21:03:02.931Z,100611.00
2022-11-24T21:05:54.798Z,100616.28
2022-11-24T21:08:42.302Z,100613.44
2022-11-24T21:11:28.117Z,100608.38
2022-11-24T21:14:13.135Z,100610.69
2022-11-24T21:16:58.188Z,100597.81
2022-11-24T21:19:43.411Z,100597.63
2022-11-24T21:22:28.585Z,100595.31
2022-11-24T21:25:19.657Z,100602.63
2022-11-24T21:28:05.203Z,100595.13
2022-11-24T21:30:50.153Z,100599.50
2022-11-24T21:33:42.730Z,100605.41
2022-11-24T21:36:28.003Z,100600.72
2022-11-24T21:39:14.399Z,100597.91
2022-11-24T21:41:59.630Z,100602.31
2022-11-24T21:44:44.638Z,100599.25
2022-11-24T21:47:29.415Z,100605.97
2022-11-24T21:50:15.994Z,100613.31
2022-11-24T21:53:03.578Z,100611.13
2022-11-24T21:55:59.782Z,100606.47
2022-11-24T21:58:50.257Z,100607.22
2022-11-24T22:01:36.031Z,100605.16
2022-11-24T22:04:21.284Z,100604.97
2022-11-24T22:07:06.178Z,100607.38
2022-11-24T22:09:51.457Z,100615.13
2022-11-24T22:12:36.882Z,100611.38
2022-11-24T22:15:22.360Z,100612.06
2022-11-24T22:18:07.651Z,100617.91
2022-11-24T22:20:55.788Z,100626.50
2022-11-24T22:23:41.266Z,100625.78
2022-11-24T22:26:28.026Z,100620.34
2022-11-24T22:29:19.388Z,100610.41
2022-11-24T22:32:04.679Z,100618.44
2022-11-24T22:34:49.867Z,100613.56
2022-11-24T22:37:34.755Z,100609.41
2022-11-24T22:40:19.708Z,100615.38
2022-11-24T22:43:04.987Z,100605.97
2022-11-24T22:45:49.987Z,100603.41
2022-11-24T22:48:35.562Z,100593.56
2022-11-24T22:51:26.203Z,100596.00
2022-11-24T22:54:12.139Z,100597.81
2022-11-24T22:56:56.991Z,100592.44
2022-11-24T22:59:41.940Z,100588.22
2022-11-24T23:02:28.288Z,100591.00
2022-11-24T23:05:17.997Z,100570.50
2022-11-24T23:08:05.720Z,100580.63
2022-11-24T23:10:51.021Z,100576.94
2022-11-24T23:13:36.407Z,100584.69
2022-11-24T23:16:22.245Z,100590.03
2022-11-24T23:19:08.504Z,100581.63
2022-11-24T23:21:53.567Z,100585.44
2022-11-24T23:24:38.484Z,100589.88
2022-11-24T23:27:23.696Z,100592.06
2022-11-24T23:30:08.860Z,100590.75
2022-11-24T23:32:54.077Z,100589.38
2022-11-24T23:35:39.305Z,100585.88
2022-11-24T23:38:26.696Z,100584.00
2022-11-24T23:41:17.857Z,100574.03
2022-11-24T23:44:03.420Z,100578.31
2022-11-24T23:46:48.624Z,100568.94
2022-11-24T23:49:33.565Z,100559.78
2022-11-24T23:52:18.348Z,100563.69
2022-11-24T23:55:03.652Z,100567.00
2022-11-24T23:57:48.517Z,100560.47
